createdAt,value
2022-10-15T00:00:40.889Z,18.93
2022-10-15T00:03:44.495Z,18.92
2022-10-15T00:06:47.174Z,18.92
2022-10-15T00:09:49.878Z,18.94
2022-10-15T00:12:53.984Z,18.93
2022-10-15T00:15:56.896Z,18.95
2022-10-15T00:19:00.319Z,18.93
2022-10-15T00:22:03.230Z,18.92
2022-10-15T00:25:06.652Z,18.91
2022-10-15T00:28:10.730Z,18.96
2022-10-15T00:31:14.480Z,18.85
2022-10-15T00:34:17.191Z,18.92
2022-10-15T00:37:21.065Z,18.91
2022-10-15T00:40:23.782Z,18.91
2022-10-15T00:43:41.802Z,18.93
2022-10-15T00:46:44.531Z,18.93
2022-10-15T00:49:50.037Z,18.93
2022-10-15T00:52:58.743Z,18.85
2022-10-15T00:56:02.218Z,18.91
2022-10-15T00:59:06.661Z,18.83
2022-10-15T01:02:09.381Z,18.89
2022-10-15T01:05:12.937Z,18.90
2022-10-15T01:08:15.569Z,18.90
2022-10-15T01:11:31.870Z,18.79
2022-10-15T01:14:40.521Z,18.71
2022-10-15T01:17:46.741Z,18.78
2022-10-15T01:20:52.488Z,18.73
2022-10-15T01:24:23.697Z,18.79
2022-10-15T01:27:30.682Z,18.67
2022-10-15T01:30:36.813Z,18.72
2022-10-15T01:33:43.635Z,18.75
2022-10-15T01:36:49.898Z,18.76
2022-10-15T01:39:54.865Z,18.75
2022-10-15T01:42:58.802Z,18.80
2022-10-15T01:46:05.379Z,18.82
2022-10-15T01:49:09.111Z,18.83
2022-10-15T01:52:24.364Z,18.83
2022-10-15T01:55:27.973Z,18.78
2022-10-15T01:58:31.084Z,18.81
2022-10-15T02:01:35.200Z,18.82
2022-10-15T02:04:38.073Z,18.78
2022-10-15T02:07:45.162Z,18.77
2022-10-15T02:10:52.481Z,18.69
2022-10-15T02:13:58.687Z,18.76
2022-10-15T02:17:07.683Z,18.78
2022-10-15T02:20:15.488Z,18.80
2022-10-15T02:23:21.038Z,18.83
2022-10-15T02:26:26.392Z,18.78
2022-10-15T02:29:31.845Z,18.77
2022-10-15T02:32:36.480Z,18.75
2022-10-15T02:35:39.286Z,18.76
2022-10-15T02:38:44.499Z,18.76
2022-10-15T02:41:48.202Z,18.74
2022-10-15T02:44:50.917Z,18.71
2022-10-15T02:47:55.524Z,18.63
2022-10-15T02:50:58.228Z,18.67
2022-10-15T02:54:00.899Z,18.62
2022-10-15T02:57:03.593Z,18.60
2022-10-15T03:00:06.862Z,18.61
2022-10-15T03:03:11.298Z,18.69
2022-10-15T03:06:14.234Z,18.62
2022-10-15T03:09:16.892Z,18.66
2022-10-15T03:12:20.951Z,18.65
2022-10-15T03:15:23.610Z,18.63
2022-10-15T03:18:27.628Z,18.66
2022-10-15T03:21:31.245Z,18.59
2022-10-15T03:24:33.996Z,18.61
2022-10-15T03:27:36.675Z,18.63
2022-10-15T03:30:39.376Z,18.62
2022-10-15T03:33:43.434Z,18.63
2022-10-15T03:36:46.257Z,18.67
2022-10-15T03:39:49.010Z,18.68
2022-10-15T03:42:52.011Z,18.62
2022-10-15T03:45:54.636Z,18.61
2022-10-15T03:48:58.885Z,18.56
2022-10-15T03:52:01.536Z,18.55
2022-10-15T03:55:04.735Z,18.49
2022-10-15T03:58:07.346Z,18.51
2022-10-15T04:01:11.003Z,18.47
2022-10-15T04:04:15.082Z,18.50
2022-10-15T04:07:17.724Z,18.44
2022-10-15T04:10:21.015Z,18.48
2022-10-15T04:13:23.731Z,18.48
2022-10-15T04:16:26.379Z,18.47
2022-10-15T04:19:30.635Z,18.54
2022-10-15T04:22:33.293Z,18.52
2022-10-15T04:25:37.251Z,18.54
2022-10-15T04:28:39.984Z,18.50
2022-10-15T04:31:42.835Z,18.50
2022-10-15T04:34:47.436Z,18.52
2022-10-15T04:37:50.139Z,18.52
2022-10-15T04:40:59.024Z,18.57
2022-10-15T04:44:01.716Z,18.58
2022-10-15T04:47:04.425Z,18.58
2022-10-15T04:50:09.006Z,18.60
2022-10-15T04:53:11.692Z,18.61
2022-10-15T04:56:15.932Z,18.58
2022-10-15T04:59:18.664Z,18.56
2022-10-15T05:02:21.472Z,18.60
2022-10-15T05:05:25.604Z,18.56
2022-10-15T05:08:28.385Z,18.45
2022-10-15T05:11:31.028Z,18.47
2022-10-15T05:14:35.647Z,18.55
2022-10-15T05:17:38.311Z,18.50
2022-10-15T05:20:42.774Z,18.51
2022-10-15T05:23:45.684Z,18.51
2022-10-15T05:26:48.347Z,18.48
2022-10-15T05:29:51.015Z,18.49
2022-10-15T05:32:53.945Z,18.53
2022-10-15T05:35:57.942Z,18.52
2022-10-15T05:39:02.172Z,18.54
2022-10-15T05:42:04.875Z,18.56
2022-10-15T05:45:08.216Z,18.54
2022-10-15T05:48:10.884Z,18.59
2022-10-15T05:51:14.942Z,18.56
2022-10-15T05:54:17.600Z,18.60
2022-10-15T05:57:20.261Z,18.59
2022-10-15T06:00:22.981Z,18.59
2022-10-15T06:03:25.708Z,18.62
2022-10-15T06:06:29.765Z,18.59
2022-10-15T06:09:32.492Z,18.59
2022-10-15T06:12:35.180Z,18.57
2022-10-15T06:15:40.151Z,18.60
2022-10-15T06:18:42.851Z,18.61
2022-10-15T06:21:47.062Z,18.63
2022-10-15T06:24:49.771Z,18.61
2022-10-15T06:27:52.444Z,18.59
2022-10-15T06:30:55.153Z,18.64
2022-10-15T06:33:57.830Z,18.69
2022-10-15T06:37:01.844Z,18.68
2022-10-15T06:40:04.712Z,18.65
2022-10-15T06:43:09.034Z,18.67
2022-10-15T06:46:11.832Z,18.72
2022-10-15T06:49:14.514Z,18.70
2022-10-15T06:52:18.583Z,18.70
2022-10-15T06:55:21.239Z,18.75
2022-10-15T06:58:23.849Z,18.72
2022-10-15T07:01:26.531Z,18.70
2022-10-15T07:04:29.148Z,18.72
2022-10-15T07:07:33.236Z,18.80
2022-10-15T07:10:35.900Z,18.77
2022-10-15T07:13:38.783Z,18.72
2022-10-15T07:16:41.467Z,18.78
2022-10-15T07:19:44.172Z,18.76
2022-10-15T07:22:48.830Z,18.75
2022-10-15T07:25:51.451Z,18.80
2022-10-15T07:28:54.184Z,18.79
2022-10-15T07:31:56.921Z,18.79
2022-10-15T07:34:59.585Z,18.84
2022-10-15T07:38:04.056Z,18.86
2022-10-15T07:41:07.482Z,18.86
2022-10-15T07:44:10.132Z,18.90
2022-10-15T07:47:12.786Z,18.89
2022-10-15T07:50:15.581Z,18.90
2022-10-15T07:53:22.667Z,18.89
2022-10-15T07:56:25.452Z,18.88
2022-10-15T07:59:28.175Z,18.90
2022-10-15T08:02:30.814Z,18.89
2022-10-15T08:05:34.474Z,18.94
2022-10-15T08:08:38.872Z,18.95
2022-10-15T08:11:41.726Z,18.99
2022-10-15T08:14:44.435Z,19.03
2022-10-15T08:17:47.125Z,19.04
2022-10-15T08:20:49.820Z,19.09
2022-10-15T08:23:53.897Z,19.09
2022-10-15T08:26:57.881Z,19.09
2022-10-15T08:30:00.542Z,19.10
2022-10-15T08:33:03.196Z,19.13
2022-10-15T08:36:06.302Z,19.15
2022-10-15T08:39:10.366Z,19.15
2022-10-15T08:42:17.652Z,19.18
2022-10-15T08:45:24.597Z,19.18
2022-10-15T08:48:30.013Z,19.20
2022-10-15T08:51:39.589Z,19.17
2022-10-15T08:54:43.638Z,19.24
2022-10-15T08:57:48.877Z,19.24
2022-10-15T09:00:53.228Z,19.32
2022-10-15T09:04:02.482Z,19.24
2022-10-15T09:07:09.642Z,19.31
2022-10-15T09:10:17.782Z,19.40
2022-10-15T09:13:24.867Z,19.32
2022-10-15T09:16:29.119Z,19.31
2022-10-15T09:19:33.079Z,19.24
2022-10-15T09:22:36.491Z,19.28
2022-10-15T09:25:45.029Z,19.55
2022-10-15T09:28:52.398Z,19.41
2022-10-15T09:31:59.492Z,19.61
2022-10-15T09:35:06.241Z,19.51
2022-10-15T09:38:17.076Z,19.69
2022-10-15T09:41:26.586Z,19.40
2022-10-15T09:44:33.659Z,19.45
2022-10-15T09:47:36.726Z,19.34
2022-10-15T09:50:41.945Z,19.30
2022-10-15T09:53:48.913Z,19.45
2022-10-15T09:56:55.134Z,19.42
2022-10-15T10:00:00.836Z,19.58
2022-10-15T10:03:07.025Z,19.58
2022-10-15T10:06:11.526Z,19.41
2022-10-15T10:09:17.613Z,19.24
2022-10-15T10:12:22.946Z,19.16
2022-10-15T10:15:32.262Z,19.21
2022-10-15T10:18:34.957Z,19.14
2022-10-15T10:21:39.417Z,19.14
2022-10-15T10:24:42.200Z,19.08
2022-10-15T10:27:47.354Z,19.12
2022-10-15T10:30:52.843Z,19.16
2022-10-15T10:33:55.861Z,19.15
2022-10-15T10:36:58.518Z,19.17
2022-10-15T10:40:01.766Z,19.18
2022-10-15T10:43:13.270Z,19.14
2022-10-15T10:46:18.991Z,19.25
2022-10-15T10:49:33.390Z,19.40
2022-10-15T10:52:37.371Z,19.23
2022-10-15T10:55:40.500Z,19.32
2022-10-15T10:59:22.432Z,19.36
2022-10-15T11:02:25.137Z,19.36
2022-10-15T11:05:29.269Z,19.34
2022-10-15T11:08:37.479Z,19.34
2022-10-15T11:11:44.312Z,19.36
2022-10-15T11:14:52.408Z,19.34
2022-10-15T11:18:01.893Z,19.30
2022-10-15T11:21:10.516Z,19.25
2022-10-15T11:24:16.475Z,19.48
2022-10-15T11:27:26.630Z,19.33
2022-10-15T11:30:36.720Z,19.23
2022-10-15T11:33:49.575Z,19.21
2022-10-15T11:37:01.802Z,19.20
2022-10-15T11:40:13.398Z,19.25
2022-10-15T11:43:23.867Z,19.27
2022-10-15T11:46:30.080Z,19.14
2022-10-15T11:49:42.401Z,19.24
2022-10-15T11:53:01.844Z,19.26
2022-10-15T11:56:07.177Z,19.24
2022-10-15T12:02:34.186Z,19.26
2022-10-15T12:05:39.530Z,19.44
2022-10-15T12:08:43.430Z,19.35
2022-10-15T12:11:49.385Z,19.61
2022-10-15T12:14:54.367Z,19.70
2022-10-15T12:18:02.882Z,19.52
2022-10-15T12:21:25.647Z,19.58
2022-10-15T12:24:47.764Z,19.44
2022-10-15T12:28:00.238Z,19.45
2022-10-15T12:31:03.666Z,19.46
2022-10-15T12:34:21.355Z,19.25
2022-10-15T12:37:26.162Z,19.34
2022-10-15T12:40:30.252Z,19.34
2022-10-15T12:43:34.277Z,19.29
2022-10-15T12:46:38.729Z,19.46
2022-10-15T12:50:06.069Z,19.60
2022-10-15T12:53:29.916Z,19.41
2022-10-15T12:56:40.693Z,19.56
2022-10-15T12:59:56.406Z,19.59
2022-10-15T13:03:17.950Z,19.81
2022-10-15T13:06:31.941Z,19.70
2022-10-15T13:09:34.674Z,19.69
2022-10-15T13:12:37.337Z,19.72
2022-10-15T13:15:40.809Z,19.88
2022-10-15T13:18:48.881Z,19.85
2022-10-15T13:21:54.025Z,19.84
2022-10-15T13:24:57.162Z,19.91
2022-10-15T13:27:59.843Z,19.96
2022-10-15T13:31:03.600Z,19.97
2022-10-15T13:34:12.666Z,19.96
2022-10-15T13:37:18.660Z,19.92
2022-10-15T13:40:22.712Z,19.93
2022-10-15T13:43:26.307Z,19.92
2022-10-15T13:46:30.929Z,19.95
2022-10-15T13:49:33.582Z,19.83
2022-10-15T13:52:40.759Z,19.92
2022-10-15T13:55:46.530Z,19.94
2022-10-15T13:58:49.352Z,19.95
2022-10-15T14:01:53.958Z,19.95
2022-10-15T14:05:15.661Z,19.95
2022-10-15T14:08:21.207Z,19.88
2022-10-15T14:11:24.195Z,19.83
2022-10-15T14:14:35.305Z,19.77
2022-10-15T14:17:38.061Z,19.70
2022-10-15T14:20:44.086Z,19.71
2022-10-15T14:23:48.888Z,19.70
2022-10-15T14:26:51.744Z,19.63
2022-10-15T14:29:55.365Z,19.65
2022-10-15T14:32:58.021Z,19.61
2022-10-15T14:36:07.976Z,19.54
2022-10-15T14:39:39.022Z,19.48
2022-10-15T14:42:44.079Z,19.47
2022-10-15T14:45:56.259Z,19.44
2022-10-15T14:48:58.971Z,19.44
2022-10-15T14:52:04.720Z,19.37
2022-10-15T14:55:11.873Z,19.37
2022-10-15T14:58:19.767Z,19.36
2022-10-15T15:01:22.468Z,19.47
2022-10-15T15:04:39.216Z,19.43
2022-10-15T15:07:41.936Z,19.24
2022-10-15T15:10:45.200Z,19.24
2022-10-15T15:13:49.799Z,19.22
2022-10-15T15:16:52.681Z,19.20
2022-10-15T15:19:56.610Z,19.22
2022-10-15T15:22:59.377Z,19.24
2022-10-15T15:26:02.833Z,19.24
2022-10-15T15:29:12.832Z,19.68
2022-10-15T15:32:16.796Z,19.56
2022-10-15T15:35:24.384Z,19.60
2022-10-15T15:38:30.822Z,19.50
2022-10-15T15:41:33.925Z,19.45
2022-10-15T15:44:38.437Z,19.57
2022-10-15T15:47:41.165Z,19.57
2022-10-15T15:50:43.840Z,19.62
2022-10-15T15:53:46.553Z,19.59
2022-10-15T15:56:49.851Z,19.63
2022-10-15T15:59:53.826Z,19.57
2022-10-15T16:02:58.044Z,19.63
2022-10-15T16:06:01.929Z,19.64
2022-10-15T16:09:06.271Z,19.73
2022-10-15T16:12:09.088Z,19.48
2022-10-15T16:15:14.784Z,19.62
2022-10-15T16:18:18.103Z,19.51
2022-10-15T16:21:22.751Z,19.48
2022-10-15T16:24:25.718Z,19.51
2022-10-15T16:27:29.339Z,19.50
2022-10-15T16:30:33.429Z,19.47
2022-10-15T16:33:36.075Z,19.45
2022-10-15T16:36:38.776Z,19.40
2022-10-15T16:39:41.906Z,19.42
2022-10-15T16:42:44.611Z,19.41
2022-10-15T16:45:56.600Z,19.37
2022-10-15T16:49:01.251Z,19.37
2022-10-15T16:52:03.958Z,19.36
2022-10-15T16:55:07.117Z,19.32
2022-10-15T16:58:09.802Z,19.33
2022-10-15T17:01:14.995Z,19.30
2022-10-15T17:04:17.945Z,19.29
2022-10-15T17:07:21.925Z,19.30
2022-10-15T17:10:25.823Z,19.33
2022-10-15T17:13:28.622Z,19.37
2022-10-15T17:16:33.755Z,19.32
2022-10-15T17:19:36.385Z,19.32
2022-10-15T17:22:39.092Z,19.33
2022-10-15T17:25:42.016Z,19.31
2022-10-15T17:28:45.363Z,19.30
2022-10-15T17:31:49.938Z,19.31
2022-10-15T17:34:52.584Z,19.37
2022-10-15T17:37:55.276Z,18.88
2022-10-15T17:40:58.182Z,19.17
2022-10-15T17:44:00.892Z,19.29
2022-10-15T17:47:04.867Z,19.34
2022-10-15T17:50:08.200Z,19.22
2022-10-15T17:53:10.848Z,19.17
2022-10-15T17:56:14.562Z,19.14
2022-10-15T17:59:17.225Z,19.08
2022-10-15T18:02:21.544Z,18.97
2022-10-15T18:05:24.208Z,19.02
2022-10-15T18:08:26.915Z,18.94
2022-10-15T18:11:31.439Z,18.98
2022-10-15T18:14:34.429Z,18.93
2022-10-15T18:17:38.508Z,18.94
2022-10-15T18:20:41.863Z,18.98
2022-10-15T18:23:44.852Z,19.04
2022-10-15T18:26:47.593Z,18.87
2022-10-15T18:29:50.220Z,19.05
2022-10-15T18:32:57.269Z,18.97
2022-10-15T18:36:06.120Z,19.05
2022-10-15T18:39:08.900Z,18.95
2022-10-15T18:42:11.632Z,18.93
2022-10-15T18:45:14.317Z,18.82
2022-10-15T18:48:18.350Z,18.83
2022-10-15T18:51:21.192Z,18.81
2022-10-15T18:54:23.923Z,18.66
2022-10-15T18:57:27.610Z,18.52
2022-10-15T19:00:31.478Z,18.59
2022-10-15T19:03:35.621Z,18.71
2022-10-15T19:06:39.787Z,18.76
2022-10-15T19:09:42.645Z,18.68
2022-10-15T19:12:45.296Z,18.75
2022-10-15T19:15:48.000Z,18.71
2022-10-15T19:18:52.147Z,18.68
2022-10-15T19:21:55.967Z,18.69
2022-10-15T19:24:58.599Z,18.65
2022-10-15T19:28:01.542Z,18.61
2022-10-15T19:31:05.093Z,18.52
2022-10-15T19:34:09.415Z,18.59
2022-10-15T19:37:12.107Z,18.49
2022-10-15T19:40:14.781Z,18.67
2022-10-15T19:43:18.653Z,18.98
2022-10-15T19:46:21.981Z,18.81
2022-10-15T19:49:26.386Z,18.81
2022-10-15T19:52:29.028Z,18.80
2022-10-15T19:55:31.721Z,18.78
2022-10-15T19:58:34.867Z,18.79
2022-10-15T20:01:38.167Z,18.79
2022-10-15T20:04:42.263Z,18.84
2022-10-15T20:07:44.912Z,18.85
2022-10-15T20:10:48.223Z,18.84
2022-10-15T20:13:51.150Z,18.83
2022-10-15T20:16:53.857Z,18.87
2022-10-15T20:19:57.923Z,18.90
2022-10-15T20:23:00.565Z,19.16
2022-10-15T20:26:05.092Z,19.21
2022-10-15T20:29:07.800Z,19.23
2022-10-15T20:32:23.484Z,19.25
2022-10-15T20:35:37.994Z,19.28
2022-10-15T20:38:41.122Z,19.29
2022-10-15T20:41:43.832Z,19.28
2022-10-15T20:44:46.472Z,19.29
2022-10-15T20:47:51.261Z,19.28
2022-10-15T20:50:56.307Z,19.29
2022-10-15T20:54:00.159Z,19.27
2022-10-15T20:57:03.298Z,19.26
2022-10-15T21:00:07.098Z,19.27
2022-10-15T21:03:09.763Z,19.29
2022-10-15T21:06:13.827Z,19.30
2022-10-15T21:09:16.451Z,19.31
2022-10-15T21:12:19.286Z,19.39
2022-10-15T21:15:21.938Z,19.36
2022-10-15T21:18:25.864Z,19.30
2022-10-15T21:21:29.930Z,19.32
2022-10-15T21:24:34.591Z,19.31
2022-10-15T21:27:38.367Z,19.32
2022-10-15T21:30:41.356Z,19.31
2022-10-15T21:33:44.450Z,19.32
2022-10-15T21:36:48.439Z,19.34
2022-10-15T21:39:51.616Z,19.33
2022-10-15T21:42:54.313Z,19.35
2022-10-15T21:45:56.984Z,19.33
2022-10-15T21:49:00.043Z,19.33
2022-10-15T21:52:04.121Z,19.32
2022-10-15T21:55:07.366Z,19.33
2022-10-15T21:58:10.073Z,19.32
2022-10-15T22:01:15.799Z,19.33
2022-10-15T22:04:20.550Z,19.32
2022-10-15T22:07:24.829Z,19.33
2022-10-15T22:10:27.804Z,19.31
2022-10-15T22:13:30.465Z,19.31
2022-10-15T22:16:34.299Z,19.35
2022-10-15T22:19:36.955Z,19.33
2022-10-15T22:22:41.001Z,19.32
2022-10-15T22:25:43.738Z,19.28
2022-10-15T22:28:46.829Z,19.30
2022-10-15T22:31:50.159Z,19.30
2022-10-15T22:34:52.909Z,19.31
2022-10-15T22:37:58.093Z,19.29
2022-10-15T22:41:01.670Z,19.31
2022-10-15T22:44:04.585Z,19.28
2022-10-15T22:47:07.246Z,19.30
2022-10-15T22:50:10.156Z,19.30
2022-10-15T22:53:14.202Z,19.30
2022-10-15T22:56:17.785Z,19.28
2022-10-15T22:59:20.675Z,19.29
2022-10-15T23:02:23.580Z,19.28
2022-10-15T23:05:26.596Z,19.27
2022-10-15T23:08:30.627Z,19.26
2022-10-15T23:11:33.988Z,19.26
2022-10-15T23:14:36.734Z,19.29
2022-10-15T23:17:39.440Z,19.26
2022-10-15T23:20:42.159Z,19.25
2022-10-15T23:23:46.943Z,19.25
2022-10-15T23:26:49.899Z,19.27
2022-10-15T23:30:01.774Z,19.26
2022-10-15T23:33:15.189Z,19.26
2022-10-15T23:36:18.294Z,19.27
2022-10-15T23:39:23.506Z,19.26
2022-10-15T23:42:26.178Z,19.23
2022-10-15T23:45:28.913Z,19.26
2022-10-15T23:48:32.307Z,19.24
2022-10-15T23:51:35.449Z,19.23
2022-10-15T23:54:39.610Z,19.25
2022-10-15T23:57:42.294Z,19.22
